createdAt,value
2023-01-06T00:00:28.672Z,6.90
2023-01-06T00:02:55.515Z,6.90
2023-01-06T00:05:25.471Z,6.90
2023-01-06T00:07:52.574Z,7.00
2023-01-06T00:10:19.500Z,7.10
2023-01-06T00:12:49.746Z,7.20
2023-01-06T00:15:17.129Z,7.20
2023-01-06T00:17:44.171Z,7.20
2023-01-06T00:20:11.565Z,7.30
2023-01-06T00:22:41.708Z,7.30
2023-01-06T00:25:11.963Z,7.20
2023-01-06T00:27:39.397Z,7.30
2023-01-06T00:30:06.865Z,7.40
2023-01-06T00:32:33.604Z,7.40
2023-01-06T00:35:00.329Z,7.40
2023-01-06T00:37:26.936Z,7.40
2023-01-06T00:39:53.750Z,7.40
2023-01-06T00:42:20.438Z,7.30
2023-01-06T00:44:47.045Z,7.30
2023-01-06T00:47:14.582Z,7.30
2023-01-06T00:49:41.237Z,7.20
2023-01-06T00:52:08.049Z,7.30
2023-01-06T00:54:36.647Z,7.30
2023-01-06T00:57:03.498Z,7.40
2023-01-06T00:59:30.151Z,7.60
2023-01-06T01:02:00.779Z,7.50
2023-01-06T01:04:27.663Z,7.50
2023-01-06T01:06:54.736Z,7.40
2023-01-06T01:09:23.085Z,7.40
2023-01-06T01:12:08.403Z,7.30
2023-01-06T01:14:35.736Z,7.10
2023-01-06T01:17:02.499Z,7.10
2023-01-06T01:19:29.766Z,7.00
2023-01-06T01:21:56.447Z,7.00
2023-01-06T01:24:23.221Z,7.00
2023-01-06T01:26:49.888Z,7.00
2023-01-06T01:29:17.845Z,7.00
2023-01-06T01:31:44.672Z,7.00
2023-01-06T01:34:12.386Z,7.00
2023-01-06T01:36:43.287Z,7.00
2023-01-06T01:39:11.382Z,7.00
2023-01-06T01:41:38.145Z,6.90
2023-01-06T01:44:24.226Z,6.90
2023-01-06T01:46:51.064Z,6.90
2023-01-06T01:49:20.892Z,6.90
2023-01-06T01:51:48.791Z,6.80
2023-01-06T01:54:21.271Z,6.80
2023-01-06T01:56:50.415Z,6.80
2023-01-06T01:59:18.886Z,6.70
2023-01-06T02:01:46.756Z,6.70
2023-01-06T02:04:14.288Z,6.70
2023-01-06T02:06:42.168Z,6.70
2023-01-06T02:09:16.254Z,6.60
2023-01-06T02:11:44.281Z,6.60
2023-01-06T02:14:13.571Z,6.50
2023-01-06T02:16:56.249Z,6.40
2023-01-06T02:19:29.251Z,6.40
2023-01-06T02:22:16.162Z,6.40
2023-01-06T02:24:53.739Z,6.40
2023-01-06T02:27:39.338Z,6.30
2023-01-06T02:30:25.269Z,6.30
2023-01-06T02:33:07.217Z,6.10
2023-01-06T02:35:34.165Z,6.10
2023-01-06T02:38:10.446Z,6.10
2023-01-06T02:40:57.383Z,6.00
2023-01-06T02:43:30.896Z,5.90
2023-01-06T02:46:09.773Z,5.60
2023-01-06T02:48:43.633Z,5.30
2023-01-06T02:51:17.134Z,5.30
2023-01-06T02:53:50.012Z,5.40
2023-01-06T02:56:18.105Z,5.50
2023-01-06T02:58:53.302Z,5.60
2023-01-06T03:01:23.583Z,5.60
2023-01-06T03:03:51.438Z,5.40
2023-01-06T03:06:22.248Z,5.20
2023-01-06T03:08:49.814Z,5.00
2023-01-06T03:11:18.274Z,5.00
2023-01-06T03:13:47.703Z,4.90
2023-01-06T03:16:15.002Z,4.90
2023-01-06T03:18:43.141Z,5.10
2023-01-06T03:21:11.663Z,5.00
2023-01-06T03:23:39.937Z,5.10
2023-01-06T03:26:07.952Z,5.10
2023-01-06T03:28:35.166Z,4.90
2023-01-06T03:31:08.644Z,4.80
2023-01-06T03:33:41.948Z,4.70
2023-01-06T03:36:18.142Z,4.60
2023-01-06T03:38:54.009Z,4.50
2023-01-06T03:41:53.393Z,4.40
2023-01-06T03:44:38.974Z,4.30
2023-01-06T03:47:12.240Z,4.20
2023-01-06T03:49:42.128Z,4.20
2023-01-06T03:52:21.323Z,4.20
2023-01-06T03:54:54.770Z,4.20
2023-01-06T03:57:30.898Z,4.30
2023-01-06T04:00:01.910Z,4.30
2023-01-06T04:02:29.083Z,4.30
2023-01-06T04:05:00.493Z,4.30
2023-01-06T04:07:28.343Z,4.20
2023-01-06T04:09:55.016Z,4.20
2023-01-06T04:12:40.514Z,4.20
2023-01-06T04:15:15.663Z,4.30
2023-01-06T04:17:45.327Z,4.30
2023-01-06T04:20:18.208Z,4.30
2023-01-06T04:22:45.250Z,4.30
2023-01-06T04:25:12.697Z,4.30
2023-01-06T04:27:40.540Z,4.30
2023-01-06T04:30:07.865Z,4.20
2023-01-06T04:32:34.598Z,4.10
2023-01-06T04:35:06.439Z,4.20
2023-01-06T04:37:33.563Z,4.30
2023-01-06T04:40:00.169Z,4.30
2023-01-06T04:42:26.876Z,4.10
2023-01-06T04:44:53.581Z,4.20
2023-01-06T04:47:20.207Z,4.20
2023-01-06T04:49:47.211Z,4.20
2023-01-06T04:52:13.815Z,4.10
2023-01-06T04:54:40.410Z,3.90
2023-01-06T04:57:07.018Z,3.70
2023-01-06T04:59:33.688Z,3.60
2023-01-06T05:02:00.368Z,3.50
2023-01-06T05:04:28.477Z,3.60
2023-01-06T05:06:56.713Z,3.50
2023-01-06T05:09:23.314Z,3.70
2023-01-06T05:11:49.930Z,3.80
2023-01-06T05:14:17.152Z,3.80
2023-01-06T05:16:44.341Z,3.50
2023-01-06T05:19:11.041Z,3.50
2023-01-06T05:21:37.684Z,3.30
2023-01-06T05:24:04.465Z,3.30
2023-01-06T05:26:31.085Z,3.40
2023-01-06T05:28:57.812Z,3.40
2023-01-06T05:31:24.477Z,3.30
2023-01-06T05:33:51.114Z,3.30
2023-01-06T05:36:18.349Z,3.40
2023-01-06T05:38:45.508Z,3.30
2023-01-06T05:41:12.303Z,3.30
2023-01-06T05:43:38.917Z,3.10
2023-01-06T05:46:10.014Z,3.00
2023-01-06T05:48:37.342Z,2.90
2023-01-06T05:51:04.883Z,2.90
2023-01-06T05:53:35.712Z,2.90
2023-01-06T05:56:03.389Z,2.90
2023-01-06T05:58:30.061Z,2.80
2023-01-06T06:00:56.721Z,2.90
2023-01-06T06:03:23.383Z,3.00
2023-01-06T06:05:50.061Z,3.00
2023-01-06T06:08:16.757Z,3.00
2023-01-06T06:10:43.367Z,3.00
2023-01-06T06:13:10.009Z,3.00
2023-01-06T06:15:36.605Z,3.00
2023-01-06T06:18:03.588Z,2.90
2023-01-06T06:20:30.233Z,2.90
2023-01-06T06:22:56.861Z,3.00
2023-01-06T06:25:23.519Z,2.90
2023-01-06T06:27:50.176Z,2.90
2023-01-06T06:30:17.436Z,2.80
2023-01-06T06:32:44.157Z,2.90
2023-01-06T06:35:10.764Z,2.90
2023-01-06T06:37:37.375Z,2.90
2023-01-06T06:40:04.302Z,2.80
2023-01-06T06:42:30.922Z,2.80
2023-01-06T06:44:57.568Z,2.90
2023-01-06T06:47:24.193Z,2.80
2023-01-06T06:49:51.231Z,2.80
2023-01-06T06:52:17.941Z,2.80
2023-01-06T06:54:44.574Z,2.80
2023-01-06T06:57:11.298Z,2.80
2023-01-06T06:59:38.170Z,2.70
2023-01-06T07:02:06.293Z,2.70
2023-01-06T07:04:33.052Z,2.80
2023-01-06T07:06:59.711Z,2.80
2023-01-06T07:09:26.352Z,2.90
2023-01-06T07:11:52.955Z,2.90
2023-01-06T07:14:19.557Z,2.90
2023-01-06T07:16:46.160Z,2.90
2023-01-06T07:19:12.790Z,3.00
2023-01-06T07:21:39.480Z,3.10
2023-01-06T07:24:06.390Z,3.20
2023-01-06T07:26:33.049Z,3.20
2023-01-06T07:28:59.833Z,3.20
2023-01-06T07:31:26.531Z,3.30
2023-01-06T07:33:53.223Z,3.40
2023-01-06T07:36:20.692Z,3.60
2023-01-06T07:38:47.691Z,3.70
2023-01-06T07:41:15.125Z,3.80
2023-01-06T07:43:42.800Z,3.70
2023-01-06T07:46:09.905Z,3.80
2023-01-06T07:48:37.478Z,4.00
2023-01-06T07:51:05.092Z,4.10
2023-01-06T07:53:32.563Z,4.20
2023-01-06T07:55:59.380Z,4.30
2023-01-06T07:58:26.102Z,4.30
2023-01-06T08:00:52.993Z,4.30
2023-01-06T08:03:20.050Z,4.10
2023-01-06T08:05:48.559Z,4.30
2023-01-06T08:08:16.126Z,4.40
2023-01-06T08:10:43.844Z,4.30
2023-01-06T08:13:10.909Z,4.50
2023-01-06T08:15:38.363Z,4.50
2023-01-06T08:18:08.680Z,4.50
2023-01-06T08:20:36.122Z,4.60
2023-01-06T08:23:04.107Z,4.60
2023-01-06T08:25:31.279Z,4.70
2023-01-06T08:28:00.487Z,4.60
2023-01-06T08:30:27.921Z,4.60
2023-01-06T08:32:58.497Z,4.50
2023-01-06T08:35:25.732Z,4.40
2023-01-06T08:37:52.605Z,4.40
2023-01-06T08:40:19.638Z,4.60
2023-01-06T08:42:48.702Z,4.60
2023-01-06T08:45:15.834Z,4.70
2023-01-06T08:47:42.741Z,4.80
2023-01-06T08:50:09.401Z,5.00
2023-01-06T08:52:39.138Z,5.10
2023-01-06T08:55:06.810Z,5.10
2023-01-06T08:57:34.584Z,5.20
2023-01-06T09:00:02.010Z,5.30
2023-01-06T09:02:31.466Z,5.30
2023-01-06T09:05:01.042Z,5.50
2023-01-06T09:07:28.451Z,5.60
2023-01-06T09:09:55.471Z,5.80
2023-01-06T09:12:22.226Z,5.90
2023-01-06T09:14:49.635Z,6.00
2023-01-06T09:17:37.125Z,6.00
2023-01-06T09:20:05.390Z,6.10
2023-01-06T09:22:36.205Z,6.20
2023-01-06T09:25:03.276Z,6.20
2023-01-06T09:27:30.057Z,6.30
2023-01-06T09:29:57.034Z,6.30
2023-01-06T09:32:23.823Z,6.30
2023-01-06T09:34:51.255Z,6.40
2023-01-06T09:37:18.404Z,6.60
2023-01-06T09:39:45.357Z,6.60
2023-01-06T09:42:12.772Z,6.50
2023-01-06T09:44:48.436Z,6.70
2023-01-06T09:47:18.757Z,6.80
2023-01-06T09:49:51.647Z,6.90
2023-01-06T09:52:24.703Z,7.10
2023-01-06T09:55:05.298Z,7.10
2023-01-06T09:57:40.930Z,7.10
2023-01-06T10:00:11.536Z,7.20
2023-01-06T10:02:40.280Z,7.40
2023-01-06T10:05:19.700Z,7.50
2023-01-06T10:07:49.325Z,7.60
2023-01-06T10:10:22.403Z,7.80
2023-01-06T10:12:58.653Z,7.90
2023-01-06T10:15:35.202Z,8.00
2023-01-06T10:18:13.233Z,8.10
2023-01-06T10:20:39.920Z,8.10
2023-01-06T10:23:06.577Z,8.10
2023-01-06T10:25:34.775Z,8.30
2023-01-06T10:28:25.334Z,8.50
2023-01-06T10:30:53.735Z,8.50
2023-01-06T10:33:28.056Z,8.50
2023-01-06T10:35:56.058Z,8.70
2023-01-06T10:38:25.939Z,9.10
2023-01-06T10:40:53.803Z,9.30
2023-01-06T10:43:23.625Z,9.60
2023-01-06T10:45:51.634Z,9.80
2023-01-06T10:48:20.368Z,10.00
2023-01-06T10:51:10.027Z,10.00
2023-01-06T10:53:36.803Z,10.10
2023-01-06T10:56:04.227Z,10.10
2023-01-06T10:58:38.630Z,10.10
2023-01-06T11:01:09.963Z,10.20
2023-01-06T11:03:38.104Z,10.40
2023-01-06T11:06:07.565Z,10.30
2023-01-06T11:08:35.711Z,10.40
2023-01-06T11:11:09.547Z,10.50
2023-01-06T11:13:39.617Z,10.50
2023-01-06T11:16:08.723Z,10.50
2023-01-06T11:18:39.119Z,10.50
2023-01-06T11:21:23.213Z,10.40
2023-01-06T11:24:18.297Z,10.30
2023-01-06T11:26:56.458Z,10.30
2023-01-06T11:29:25.800Z,10.30
2023-01-06T11:31:57.118Z,10.50
2023-01-06T11:34:32.389Z,10.30
2023-01-06T11:37:01.389Z,10.50
2023-01-06T11:39:35.796Z,10.30
2023-01-06T11:42:18.499Z,10.20
2023-01-06T11:44:52.464Z,10.30
2023-01-06T11:47:37.322Z,10.30
2023-01-06T11:50:25.103Z,10.30
2023-01-06T11:53:11.974Z,10.20
2023-01-06T11:56:15.658Z,10.20
2023-01-06T11:59:15.895Z,10.20
2023-01-06T12:01:47.117Z,10.30
2023-01-06T12:04:17.544Z,10.30
2023-01-06T12:06:45.606Z,10.30
2023-01-06T12:09:37.233Z,10.20
2023-01-06T12:12:15.601Z,10.30
2023-01-06T12:14:43.397Z,10.30
2023-01-06T12:17:34.628Z,10.30
2023-01-06T12:20:13.584Z,10.30
2023-01-06T12:22:55.036Z,10.30
2023-01-06T12:25:25.857Z,10.50
2023-01-06T12:27:54.640Z,10.50
2023-01-06T12:30:38.320Z,10.50
2023-01-06T12:33:33.174Z,10.60
2023-01-06T12:36:03.703Z,10.50
2023-01-06T12:38:39.979Z,10.50
2023-01-06T12:41:34.175Z,10.50
2023-01-06T12:44:21.474Z,10.40
2023-01-06T12:47:01.633Z,10.20
2023-01-06T12:49:32.874Z,10.20
2023-01-06T12:52:05.972Z,10.20
2023-01-06T12:54:34.671Z,10.30
2023-01-06T12:57:10.913Z,10.20
2023-01-06T12:59:37.964Z,10.10
2023-01-06T13:02:08.228Z,10.30
2023-01-06T13:04:35.340Z,10.30
2023-01-06T13:07:19.691Z,10.20
2023-01-06T13:09:54.732Z,10.30
2023-01-06T13:12:33.958Z,10.30
2023-01-06T13:15:33.464Z,10.30
2023-01-06T13:18:21.319Z,10.20
2023-01-06T13:20:51.749Z,10.10
2023-01-06T13:23:38.434Z,10.20
2023-01-06T13:26:27.121Z,10.40
2023-01-06T13:29:13.797Z,10.60
2023-01-06T13:31:43.608Z,10.30
2023-01-06T13:34:14.035Z,10.30
2023-01-06T13:36:50.087Z,10.30
2023-01-06T13:39:28.116Z,10.30
2023-01-06T13:41:57.201Z,10.30
2023-01-06T13:44:27.463Z,10.20
2023-01-06T13:47:02.352Z,10.10
2023-01-06T13:49:30.323Z,10.10
2023-01-06T13:52:00.655Z,10.00
2023-01-06T13:54:39.788Z,10.00
2023-01-06T13:57:22.285Z,10.00
2023-01-06T13:59:52.819Z,9.70
2023-01-06T14:02:32.052Z,9.50
2023-01-06T14:04:59.199Z,9.50
2023-01-06T14:07:34.877Z,9.50
2023-01-06T14:10:04.658Z,9.70
2023-01-06T14:12:36.660Z,9.60
2023-01-06T14:15:08.106Z,9.80
2023-01-06T14:17:37.186Z,10.00
2023-01-06T14:20:08.514Z,10.10
2023-01-06T14:22:38.943Z,10.10
2023-01-06T14:25:09.799Z,9.90
2023-01-06T14:27:47.539Z,10.00
2023-01-06T14:30:36.597Z,9.80
2023-01-06T14:33:08.007Z,9.70
2023-01-06T14:35:44.186Z,9.60
2023-01-06T14:38:23.390Z,9.60
2023-01-06T14:40:54.225Z,9.60
2023-01-06T14:43:36.532Z,9.50
2023-01-06T14:46:11.005Z,9.40
2023-01-06T14:48:41.384Z,9.30
2023-01-06T14:51:12.522Z,9.20
2023-01-06T14:53:42.981Z,9.10
2023-01-06T14:56:18.092Z,9.20
2023-01-06T14:58:45.038Z,9.20
2023-01-06T15:01:23.662Z,9.10
2023-01-06T15:03:54.901Z,9.10
2023-01-06T15:06:23.309Z,9.10
2023-01-06T15:08:51.775Z,9.00
2023-01-06T15:11:24.886Z,9.00
2023-01-06T15:13:52.430Z,9.00
2023-01-06T15:16:39.011Z,9.00
2023-01-06T15:19:06.986Z,9.00
2023-01-06T15:21:38.772Z,9.00
2023-01-06T15:24:08.985Z,8.90
2023-01-06T15:26:37.346Z,8.90
2023-01-06T15:29:06.761Z,8.80
2023-01-06T15:31:39.235Z,8.80
2023-01-06T15:34:13.127Z,8.80
2023-01-06T15:36:41.918Z,8.80
2023-01-06T15:39:11.189Z,8.80
2023-01-06T15:41:40.454Z,8.80
2023-01-06T15:44:26.334Z,8.80
2023-01-06T15:46:57.777Z,8.70
2023-01-06T15:49:30.858Z,8.70
2023-01-06T15:52:00.667Z,8.60
2023-01-06T15:54:31.092Z,8.80
2023-01-06T15:57:14.905Z,8.70
2023-01-06T15:59:50.918Z,8.60
2023-01-06T16:02:18.838Z,8.60
2023-01-06T16:04:50.997Z,8.60
2023-01-06T16:07:36.525Z,8.60
2023-01-06T16:10:03.647Z,8.60
2023-01-06T16:12:30.722Z,8.60
2023-01-06T16:14:57.646Z,8.50
2023-01-06T16:17:37.903Z,8.50
2023-01-06T16:20:20.942Z,8.50
2023-01-06T16:22:52.579Z,8.60
2023-01-06T16:25:24.507Z,8.60
2023-01-06T16:27:54.158Z,8.60
2023-01-06T16:30:21.712Z,8.50
2023-01-06T16:32:53.161Z,8.40
2023-01-06T16:35:24.932Z,8.50
2023-01-06T16:37:52.491Z,8.50
2023-01-06T16:40:20.753Z,8.30
2023-01-06T16:42:50.946Z,8.40
2023-01-06T16:45:27.652Z,8.50
2023-01-06T16:47:56.041Z,8.60
2023-01-06T16:50:28.718Z,8.50
2023-01-06T16:53:02.344Z,8.50
2023-01-06T16:55:29.426Z,8.50
2023-01-06T16:57:56.974Z,8.50
2023-01-06T17:00:23.993Z,8.50
2023-01-06T17:02:51.024Z,8.60
2023-01-06T17:05:25.743Z,8.50
2023-01-06T17:07:53.378Z,8.40
2023-01-06T17:10:21.137Z,8.40
2023-01-06T17:13:12.235Z,8.30
2023-01-06T17:15:38.844Z,8.40
2023-01-06T17:18:23.174Z,8.50
2023-01-06T17:20:50.057Z,8.40
2023-01-06T17:23:16.757Z,8.40
2023-01-06T17:25:44.203Z,8.40
2023-01-06T17:28:17.605Z,8.40
2023-01-06T17:30:44.392Z,8.40
2023-01-06T17:33:12.099Z,8.50
2023-01-06T17:35:38.750Z,8.40
2023-01-06T17:38:14.505Z,8.40
2023-01-06T17:40:41.643Z,8.50
2023-01-06T17:43:17.262Z,8.40
2023-01-06T17:45:43.850Z,8.40
2023-01-06T17:48:11.452Z,8.40
2023-01-06T17:50:40.622Z,8.40
2023-01-06T17:53:45.842Z,8.40
2023-01-06T17:56:13.124Z,8.30
2023-01-06T17:58:41.193Z,8.40
2023-01-06T18:01:08.792Z,8.30
2023-01-06T18:03:40.846Z,8.30
2023-01-06T18:06:07.522Z,8.30
2023-01-06T18:08:38.172Z,8.20
2023-01-06T18:11:10.589Z,8.30
2023-01-06T18:13:38.416Z,8.20
2023-01-06T18:16:28.292Z,8.20
2023-01-06T18:19:13.757Z,8.20
2023-01-06T18:21:40.834Z,8.10
2023-01-06T18:24:22.435Z,8.00
2023-01-06T18:26:52.601Z,8.00
2023-01-06T18:29:22.275Z,8.10
2023-01-06T18:31:50.139Z,7.90
2023-01-06T18:34:24.876Z,7.90
2023-01-06T18:36:52.084Z,7.90
2023-01-06T18:39:21.304Z,7.90
2023-01-06T18:41:48.599Z,8.00
2023-01-06T18:44:17.757Z,8.00
2023-01-06T18:46:44.345Z,8.00
2023-01-06T18:49:15.840Z,8.00
2023-01-06T18:51:43.199Z,8.00
2023-01-06T18:54:18.450Z,7.90
2023-01-06T18:56:45.521Z,8.00
2023-01-06T18:59:18.224Z,8.00
2023-01-06T19:01:45.997Z,8.00
2023-01-06T19:04:18.909Z,8.10
2023-01-06T19:06:47.624Z,8.10
2023-01-06T19:09:17.487Z,8.10
2023-01-06T19:11:44.206Z,7.90
2023-01-06T19:14:17.124Z,7.90
2023-01-06T19:16:47.202Z,8.00
2023-01-06T19:19:19.851Z,8.00
2023-01-06T19:21:46.551Z,7.90
2023-01-06T19:24:28.780Z,7.90
2023-01-06T19:26:59.519Z,7.90
2023-01-06T19:29:28.171Z,7.90
2023-01-06T19:31:56.049Z,7.90
2023-01-06T19:34:23.121Z,7.90
2023-01-06T19:36:53.262Z,7.90
2023-01-06T19:39:40.131Z,7.90
2023-01-06T19:42:29.995Z,7.90
2023-01-06T19:45:01.400Z,7.90
2023-01-06T19:47:28.926Z,7.90
2023-01-06T19:49:59.677Z,7.80
2023-01-06T19:52:27.967Z,7.90
2023-01-06T19:54:55.593Z,7.90
2023-01-06T19:57:27.795Z,7.90
2023-01-06T19:59:56.747Z,7.90
2023-01-06T20:02:30.826Z,7.90
2023-01-06T20:04:57.682Z,7.90
2023-01-06T20:07:24.344Z,7.90
2023-01-06T20:09:51.003Z,7.90
2023-01-06T20:12:17.686Z,7.80
2023-01-06T20:14:44.327Z,7.80
2023-01-06T20:17:11.052Z,7.80
2023-01-06T20:19:37.684Z,7.70
2023-01-06T20:22:04.302Z,7.60
2023-01-06T20:24:30.888Z,7.60
2023-01-06T20:26:57.492Z,7.50
2023-01-06T20:29:24.161Z,7.30
2023-01-06T20:31:51.037Z,7.30
2023-01-06T20:34:17.749Z,7.30
2023-01-06T20:36:44.359Z,7.30
2023-01-06T20:39:14.924Z,7.30
2023-01-06T20:41:41.745Z,7.30
2023-01-06T20:44:10.500Z,7.20
2023-01-06T20:46:38.237Z,7.30
2023-01-06T20:49:09.334Z,7.30
2023-01-06T20:51:44.735Z,7.40
2023-01-06T20:54:21.002Z,7.40
2023-01-06T20:56:51.213Z,7.40
2023-01-06T20:59:47.773Z,7.40
2023-01-06T21:02:18.257Z,7.40
2023-01-06T21:05:06.758Z,7.50
2023-01-06T21:10:52.948Z,7.50
2023-01-06T21:13:37.064Z,7.60
2023-01-06T21:16:09.489Z,7.60
2023-01-06T21:21:44.035Z,7.50
2023-01-06T21:24:11.963Z,7.50
2023-01-06T21:26:40.779Z,7.50
2023-01-06T21:29:44.842Z,7.50
2023-01-06T22:02:35.645Z,7.40
2023-01-06T22:28:13.376Z,7.40
2023-01-06T22:30:45.388Z,7.60
2023-01-06T22:33:14.857Z,7.60
2023-01-06T22:35:44.789Z,7.60
2023-01-06T22:38:15.202Z,7.50
2023-01-06T22:40:45.686Z,7.50
2023-01-06T22:43:24.165Z,7.50
2023-01-06T22:46:02.127Z,7.50
2023-01-06T22:48:32.456Z,7.40
2023-01-06T22:51:09.689Z,7.40
2023-01-06T22:53:38.417Z,7.50
2023-01-06T22:56:11.197Z,7.50
2023-01-06T22:58:41.306Z,7.40
2023-01-06T23:01:09.653Z,7.50
2023-01-06T23:03:38.196Z,7.50
2023-01-06T23:06:11.201Z,7.50
2023-01-06T23:08:58.508Z,7.50
2023-01-06T23:11:34.707Z,7.40
2023-01-06T23:14:02.704Z,7.40
2023-01-06T23:16:30.408Z,7.50
2023-01-06T23:18:59.981Z,7.50
2023-01-06T23:21:30.123Z,7.50
2023-01-06T23:23:57.969Z,7.40
2023-01-06T23:26:30.484Z,7.40
2023-01-06T23:29:01.191Z,7.40
2023-01-06T23:31:33.293Z,7.50
2023-01-06T23:34:03.090Z,7.50
2023-01-06T23:36:34.386Z,7.50
2023-01-06T23:39:04.125Z,7.50
2023-01-06T23:41:34.436Z,7.40
2023-01-06T23:44:16.401Z,7.40
2023-01-06T23:46:44.831Z,7.50
2023-01-06T23:49:14.767Z,7.60
2023-01-06T23:51:43.440Z,7.60
2023-01-06T23:54:11.737Z,7.70
2023-01-06T23:56:40.640Z,7.60
2023-01-06T23:59:09.721Z,7.60
